Terminal Aerodrome Forecast
Issued by NWS

Home | Current Version | Previous Version | Graphics & Text | Print | Product List | Glossary On
Versions: 1 2 3 4 5 6 7 8 9 10 11 12 13 14 15 16 17 18 19 20 21 22 23 24 25 26 27 28 29 30 31 32
000
FTUS43 KGRB 281700
TAFRHI
TAF
KRHI 281720Z 2818/2918 23006KT P6SM SKC
     FM282300 22007KT P6SM SCT250
     FM290900 20013G17KT P6SM SCT080 BKN100 WS010/23040KT
     FM291200 20014G19KT P6SM SCT050 BKN100 WS020/21040KT
      TEMPO 2912/2915 6SM -SN OVC030
     FM291500 20017G25KT 5SM -SN OVC020=

USA.gov is the U.S. government's official web portal to all federal, state and local government web resources and services.